Winchester, Nevada
Current Conditions -  °F | °C
As of 9:56 AM on Thursday 30 Oct 2014 (Local Time) from KLAS Reporting Station
Scattered Clouds Scattered Clouds  
Wind Chill: 70°   Ceiling: Unl
Heat Index: 70°   Visibility: 10mi
Dew Point: 24°   Wind: 3mph
Humidity: 18%   Direction: 160°SSE
Pressure: 30.08"   Gusts: NA
Location:  36.13°N, 115.11°W
Report Text: KLAS 301656Z 16003KT 10SM SCT250 21/M04 A3008 RMK AO2 SLP171 T02111044
Loading
Personal Weather Stations






























Interactive Weather Map
Tropical Storm Tracking
New forecast layout! Learn more

10-Day Weather Forecast

Advertisements
Track Severe Weather on mobile